Time;durP1;ratioP1;P1;durP2;ratioP2;P2;SDS_P1;SDS_P2;PMS_P1;PMS_P2;Temp;Humidity;BMP_temperature;BMP_pressure;BME280_temperature;BME280_humidity;BME280_pressure;Samples;Min_cycle;Max_cycle;Signal;HPM_P1;HPM_P2
2021/04/19 00:01:26;;;;;;;23.77;16.53;;;;;;;;;;4941444;28;20192;-62
2021/04/19 00:03:52;;;;;;;20.63;14.60;;;;;;;;;;4942738;29;20580;-62
2021/04/19 00:06:18;;;;;;;20.20;15.67;;;;;;;;;;4939648;29;20174;-62
2021/04/19 00:08:44;;;;;;;19.63;16.00;;;;;;;;;;4945953;28;20555;-63
2021/04/19 00:11:10;;;;;;;19.60;16.40;;;;;;;;;;4944346;28;20226;-63
2021/04/19 00:13:36;;;;;;;19.27;15.40;;;;;;;;;;4941877;28;20644;-63
2021/04/19 00:16:02;;;;;;;18.13;15.47;;;;;;;;;;4943092;29;20193;-62
2021/04/19 00:18:28;;;;;;;16.57;14.73;;;;;;;;;;4943979;29;20211;-62
2021/04/19 00:20:54;;;;;;;18.00;15.13;;;;;;;;;;4944187;28;20292;-63
2021/04/19 00:23:20;;;;;;;18.13;15.70;;;;;;;;;;4946496;28;20196;-62
2021/04/19 00:25:46;;;;;;;17.43;15.63;;;;;;;;;;4946575;29;20196;-63
2021/04/19 00:28:12;;;;;;;18.57;15.87;;;;;;;;;;4943926;28;20286;-62
2021/04/19 00:30:38;;;;;;;18.27;15.63;;;;;;;;;;4942895;28;20221;-63
2021/04/19 00:33:04;;;;;;;20.83;17.13;;;;;;;;;;4944302;28;20193;-62
2021/04/19 00:35:30;;;;;;;20.30;15.67;;;;;;;;;;4945068;28;20209;-63
2021/04/19 00:37:56;;;;;;;20.30;15.97;;;;;;;;;;4944108;29;20295;-62
2021/04/19 00:40:23;;;;;;;17.60;15.70;;;;;;;;;;4948037;28;20263;-63
2021/04/19 00:42:50;;;;;;;18.73;15.03;;;;;;;;;;4942941;28;20215;-63
2021/04/19 00:45:17;;;;;;;19.53;16.93;;;;;;;;;;4943893;29;20199;-63
2021/04/19 00:47:46;;;;;;;19.43;16.43;;;;;;;;;;4945148;29;20213;-62
2021/04/19 00:50:13;;;;;;;22.83;15.77;;;;;;;;;;4934965;29;20200;-63
2021/04/19 00:52:39;;;;;;;20.53;15.93;;;;;;;;;;4940875;28;20185;-62
2021/04/19 00:55:08;;;;;;;20.77;15.90;;;;;;;;;;4942888;28;20207;-62
2021/04/19 00:57:34;;;;;;;19.70;16.03;;;;;;;;;;4938653;29;20223;-63
2021/04/19 01:00:00;;;;;;;18.67;15.60;;;;;;;;;;4938643;28;20556;-63
2021/04/19 01:02:26;;;;;;;22.77;16.73;;;;;;;;;;4943991;29;20192;-62
2021/04/19 01:04:52;;;;;;;19.93;16.70;;;;;;;;;;4937604;29;20247;-65
2021/04/19 01:07:18;;;;;;;17.00;15.20;;;;;;;;;;4943201;29;20706;-61
2021/04/19 01:09:44;;;;;;;20.53;16.43;;;;;;;;;;4943704;28;20221;-63
2021/04/19 01:12:10;;;;;;;20.70;16.83;;;;;;;;;;4942402;29;20562;-63
2021/04/19 01:14:36;;;;;;;19.23;16.50;;;;;;;;;;4945428;28;20192;-64
2021/04/19 01:17:02;;;;;;;22.27;17.60;;;;;;;;;;4941065;28;20208;-63
2021/04/19 01:19:28;;;;;;;20.40;16.70;;;;;;;;;;4941123;28;20223;-62
2021/04/19 01:21:54;;;;;;;21.77;16.03;;;;;;;;;;4938921;29;20205;-64
2021/04/19 01:24:20;;;;;;;20.20;17.57;;;;;;;;;;4941246;29;20558;-62
2021/04/19 01:26:46;;;;;;;22.60;17.27;;;;;;;;;;4944667;28;20702;-64
2021/04/19 01:29:12;;;;;;;21.27;17.00;;;;;;;;;;4944722;28;20199;-62
2021/04/19 01:31:38;;;;;;;23.47;18.93;;;;;;;;;;4946656;29;20223;-64
2021/04/19 01:34:04;;;;;;;24.03;17.43;;;;;;;;;;4947683;28;20187;-64
2021/04/19 01:36:30;;;;;;;21.17;17.43;;;;;;;;;;4943861;29;20574;-62
2021/04/19 01:38:56;;;;;;;22.33;18.00;;;;;;;;;;4946232;29;20269;-62
2021/04/19 01:41:23;;;;;;;24.00;18.23;;;;;;;;;;4947977;29;20204;-63
2021/04/19 01:43:49;;;;;;;21.27;18.97;;;;;;;;;;4944670;29;20553;-62
2021/04/19 01:46:15;;;;;;;22.17;17.33;;;;;;;;;;4950228;28;20200;-64
2021/04/19 01:48:41;;;;;;;24.13;18.27;;;;;;;;;;4948740;29;20244;-64
2021/04/19 01:51:07;;;;;;;20.10;17.93;;;;;;;;;;4946629;29;20758;-62
2021/04/19 01:53:33;;;;;;;22.20;17.40;;;;;;;;;;4946721;28;20242;-62
2021/04/19 01:55:59;;;;;;;22.37;18.63;;;;;;;;;;4943783;28;20181;-62
2021/04/19 01:58:26;;;;;;;21.77;18.17;;;;;;;;;;4944868;28;20304;-62
2021/04/19 02:00:53;;;;;;;20.00;17.90;;;;;;;;;;4946399;29;20206;-63
2021/04/19 02:03:34;;;;;;;20.73;18.27;;;;;;;;;;4943038;29;20556;-62
2021/04/19 02:06:00;;;;;;;21.23;17.37;;;;;;;;;;4946314;29;20221;-62
2021/04/19 02:08:28;;;;;;;23.27;18.30;;;;;;;;;;4947159;28;20695;-62
2021/04/19 02:11:03;;;;;;;22.20;18.37;;;;;;;;;;4947439;29;20218;-62
2021/04/19 02:13:29;;;;;;;22.03;17.73;;;;;;;;;;4941146;28;20263;-61
2021/04/19 02:16:12;;;;;;;20.13;17.13;;;;;;;;;;4946325;28;20281;-62
2021/04/19 02:18:44;;;;;;;23.63;16.37;;;;;;;;;;4943479;29;20266;-62
2021/04/19 02:21:14;;;;;;;21.73;17.43;;;;;;;;;;4942735;29;20622;-62
2021/04/19 02:23:41;;;;;;;19.63;17.47;;;;;;;;;;4947573;29;20555;-64
2021/04/19 02:26:25;;;;;;;17.83;15.53;;;;;;;;;;4942291;29;20202;-62
2021/04/19 02:29:12;;;;;;;20.23;16.57;;;;;;;;;;4947101;29;20234;-63
2021/04/19 02:31:41;;;;;;;20.63;17.10;;;;;;;;;;4945184;29;20351;-62
2021/04/19 02:34:09;;;;;;;24.03;17.50;;;;;;;;;;4949315;28;20205;-63
2021/04/19 02:36:36;;;;;;;21.50;18.33;;;;;;;;;;4950531;29;20215;-65
2021/04/19 02:39:03;;;;;;;19.40;17.20;;;;;;;;;;4943828;29;20210;-62
2021/04/19 02:41:30;;;;;;;22.50;17.70;;;;;;;;;;4941443;29;20201;-62
2021/04/19 02:43:57;;;;;;;20.47;17.10;;;;;;;;;;4949343;29;20196;-62
2021/04/19 02:46:24;;;;;;;20.13;17.40;;;;;;;;;;4946027;28;20191;-61
2021/04/19 02:48:51;;;;;;;20.23;17.97;;;;;;;;;;4946452;29;20281;-62
2021/04/19 02:51:17;;;;;;;22.00;17.63;;;;;;;;;;4943988;28;20212;-62
2021/04/19 02:53:44;;;;;;;22.37;17.47;;;;;;;;;;4946530;29;20198;-64
2021/04/19 02:56:10;;;;;;;22.63;17.57;;;;;;;;;;4945530;28;20248;-65
2021/04/19 02:58:40;;;;;;;24.03;17.93;;;;;;;;;;4945993;28;20230;-62
2021/04/19 03:01:07;;;;;;;20.20;17.03;;;;;;;;;;4940913;29;20195;-62
2021/04/19 03:03:35;;;;;;;21.03;17.23;;;;;;;;;;4947153;28;20191;-62
2021/04/19 03:06:03;;;;;;;19.10;17.10;;;;;;;;;;4943375;28;20198;-62
2021/04/19 03:08:31;;;;;;;20.90;18.23;;;;;;;;;;4941605;29;20268;-62
2021/04/19 03:10:59;;;;;;;20.20;16.83;;;;;;;;;;4944990;29;20229;-63
2021/04/19 03:13:26;;;;;;;22.73;16.47;;;;;;;;;;4950993;28;20199;-63
2021/04/19 03:15:54;;;;;;;24.27;16.77;;;;;;;;;;4933783;28;20541;-62
2021/04/19 03:18:21;;;;;;;19.90;17.17;;;;;;;;;;4946659;28;20209;-62
2021/04/19 03:20:50;;;;;;;25.57;18.67;;;;;;;;;;4943038;29;20334;-63
2021/04/19 03:23:17;;;;;;;22.07;17.97;;;;;;;;;;4947777;29;20219;-63
2021/04/19 03:25:44;;;;;;;19.53;16.10;;;;;;;;;;4944644;29;20198;-63
2021/04/19 03:28:11;;;;;;;19.50;16.87;;;;;;;;;;4944014;28;20215;-62
2021/04/19 03:30:39;;;;;;;19.40;16.13;;;;;;;;;;4941329;29;20810;-62
2021/04/19 03:33:05;;;;;;;18.77;15.67;;;;;;;;;;4942665;28;20286;-64
2021/04/19 03:35:33;;;;;;;20.47;15.37;;;;;;;;;;4948292;28;20213;-62
2021/04/19 03:38:00;;;;;;;17.30;15.37;;;;;;;;;;4945977;29;20588;-62
2021/04/19 03:40:28;;;;;;;18.57;15.13;;;;;;;;;;4944149;28;20195;-62
2021/04/19 03:42:56;;;;;;;19.37;15.23;;;;;;;;;;4942182;29;20208;-62
2021/04/19 03:45:24;;;;;;;22.20;17.33;;;;;;;;;;4941124;28;20227;-62
2021/04/19 03:47:51;;;;;;;21.03;15.83;;;;;;;;;;4943059;29;20206;-62
2021/04/19 03:50:19;;;;;;;17.53;15.63;;;;;;;;;;4942594;29;20201;-63
2021/04/19 03:52:49;;;;;;;22.97;16.50;;;;;;;;;;4941172;29;20237;-62
2021/04/19 03:55:15;;;;;;;19.33;15.43;;;;;;;;;;4942048;29;20202;-62
2021/04/19 03:57:42;;;;;;;18.40;14.70;;;;;;;;;;4940089;29;20305;-62
2021/04/19 04:00:10;;;;;;;20.03;14.93;;;;;;;;;;4947480;28;20197;-63
2021/04/19 04:02:38;;;;;;;17.63;15.43;;;;;;;;;;4942517;29;20229;-62
2021/04/19 04:05:05;;;;;;;20.57;14.57;;;;;;;;;;4946579;29;20192;-62
2021/04/19 04:07:32;;;;;;;18.33;16.43;;;;;;;;;;4943447;28;20217;-62
2021/04/19 04:09:59;;;;;;;20.77;15.97;;;;;;;;;;4945709;28;20189;-62
2021/04/19 04:12:25;;;;;;;19.73;16.23;;;;;;;;;;4945086;29;20306;-62
2021/04/19 04:14:54;;;;;;;19.93;16.03;;;;;;;;;;4945605;29;20212;-60
2021/04/19 04:17:20;;;;;;;22.73;15.70;;;;;;;;;;4944541;29;20624;-63
2021/04/19 04:19:46;;;;;;;17.80;13.90;;;;;;;;;;4944819;28;20189;-62
2021/04/19 04:22:13;;;;;;;19.87;15.33;;;;;;;;;;4940737;29;20677;-63
2021/04/19 04:24:39;;;;;;;20.27;16.33;;;;;;;;;;4943053;29;20190;-65
2021/04/19 04:27:06;;;;;;;17.90;15.23;;;;;;;;;;4943333;29;20992;-62
2021/04/19 04:29:32;;;;;;;17.37;15.40;;;;;;;;;;4939354;29;20205;-63
2021/04/19 04:31:58;;;;;;;19.20;16.03;;;;;;;;;;4941898;28;20209;-62
2021/04/19 04:34:24;;;;;;;18.10;15.63;;;;;;;;;;4938473;29;20194;-64
2021/04/19 04:36:50;;;;;;;21.67;15.60;;;;;;;;;;4935112;28;20934;-61
2021/04/19 04:39:16;;;;;;;21.17;16.77;;;;;;;;;;4937982;29;20180;-64
2021/04/19 04:41:42;;;;;;;21.73;17.83;;;;;;;;;;4939051;28;20214;-64
2021/04/19 04:44:10;;;;;;;19.07;16.37;;;;;;;;;;4944041;29;20218;-65
2021/04/19 04:47:03;;;;;;;21.60;16.93;;;;;;;;;;4940112;29;20212;-64
2021/04/19 04:49:33;;;;;;;17.27;15.47;;;;;;;;;;4941713;29;20317;-62
2021/04/19 04:52:00;;;;;;;19.57;16.13;;;;;;;;;;4942042;29;20281;-64
2021/04/19 04:54:27;;;;;;;20.50;16.90;;;;;;;;;;4941685;29;20462;-64
2021/04/19 04:56:55;;;;;;;18.37;16.00;;;;;;;;;;4926639;29;20213;-64
2021/04/19 04:59:22;;;;;;;19.00;16.20;;;;;;;;;;4947280;29;20349;-67
2021/04/19 05:01:49;;;;;;;18.60;16.57;;;;;;;;;;4947880;29;20720;-63
2021/04/19 05:04:15;;;;;;;19.97;15.97;;;;;;;;;;4941462;29;20200;-63
2021/04/19 05:06:44;;;;;;;17.90;14.57;;;;;;;;;;4943324;29;20344;-63
2021/04/19 05:09:11;;;;;;;21.93;15.37;;;;;;;;;;4948142;28;20224;-63
2021/04/19 05:11:40;;;;;;;18.83;16.50;;;;;;;;;;4946083;29;20219;-63
2021/04/19 05:14:06;;;;;;;22.00;16.57;;;;;;;;;;4947495;29;20213;-61
2021/04/19 05:16:32;;;;;;;19.83;17.10;;;;;;;;;;4948993;29;20205;-63
2021/04/19 05:18:59;;;;;;;19.30;16.37;;;;;;;;;;4949411;29;20290;-62
2021/04/19 05:21:25;;;;;;;21.73;15.60;;;;;;;;;;4943446;29;20200;-63
2021/04/19 05:23:51;;;;;;;20.93;16.80;;;;;;;;;;4952218;29;20776;-62
2021/04/19 05:26:19;;;;;;;22.13;16.97;;;;;;;;;;4936183;29;20204;-63
2021/04/19 05:28:45;;;;;;;21.30;16.60;;;;;;;;;;4944102;28;20287;-64
2021/04/19 05:31:11;;;;;;;18.63;16.63;;;;;;;;;;4944082;29;20301;-63
2021/04/19 05:33:37;;;;;;;22.33;17.20;;;;;;;;;;4947622;29;20193;-66
2021/04/19 05:36:08;;;;;;;22.43;17.30;;;;;;;;;;4946238;28;20262;-62
2021/04/19 05:38:34;;;;;;;21.10;16.63;;;;;;;;;;4945388;28;20222;-62
2021/04/19 05:41:01;;;;;;;18.53;16.37;;;;;;;;;;4952052;28;20199;-63
2021/04/19 05:43:27;;;;;;;18.90;16.43;;;;;;;;;;4945366;28;20665;-61
2021/04/19 05:45:53;;;;;;;15.80;13.20;;;;;;;;;;4944578;29;20570;-63
2021/04/19 05:48:19;;;;;;;54.20;41.80;;;;;;;;;;4944204;29;20277;-62
2021/04/19 05:50:48;;;;;;;18.73;16.63;;;;;;;;;;4942406;28;20215;-64
2021/04/19 05:53:14;;;;;;;19.27;14.80;;;;;;;;;;4942697;29;20334;-63
2021/04/19 05:55:42;;;;;;;18.10;14.47;;;;;;;;;;4942078;29;20187;-62
2021/04/19 05:58:17;;;;;;;17.87;15.30;;;;;;;;;;4935834;29;20215;-64
2021/04/19 06:01:09;;;;;;;17.50;15.37;;;;;;;;;;4945394;28;20197;-64
2021/04/19 06:03:42;;;;;;;20.07;15.80;;;;;;;;;;4944584;29;20206;-63
2021/04/19 06:06:17;;;;;;;19.40;15.77;;;;;;;;;;4941309;28;20569;-62
2021/04/19 06:08:46;;;;;;;18.47;15.87;;;;;;;;;;4944955;29;20194;-63
2021/04/19 06:11:23;;;;;;;23.27;17.03;;;;;;;;;;4944619;29;20219;-63
2021/04/19 06:13:49;;;;;;;22.83;18.13;;;;;;;;;;4945824;28;20186;-63
2021/04/19 06:16:16;;;;;;;24.90;18.73;;;;;;;;;;4943450;29;20190;-65
2021/04/19 06:18:44;;;;;;;20.03;16.97;;;;;;;;;;4947538;28;20205;-63
2021/04/19 06:21:10;;;;;;;22.27;17.93;;;;;;;;;;4938707;28;20202;-64
2021/04/19 06:23:37;;;;;;;24.23;19.17;;;;;;;;;;4949337;28;20187;-64
2021/04/19 06:26:06;;;;;;;21.13;18.13;;;;;;;;;;4949574;28;20193;-63
2021/04/19 06:28:32;;;;;;;26.83;19.60;;;;;;;;;;4945185;28;20217;-61
2021/04/19 06:30:59;;;;;;;22.93;20.17;;;;;;;;;;4946414;28;20286;-63
2021/04/19 06:33:26;;;;;;;24.57;19.77;;;;;;;;;;4946913;28;20510;-62
2021/04/19 06:35:52;;;;;;;26.70;21.47;;;;;;;;;;4939958;29;20195;-65
2021/04/19 06:38:19;;;;;;;25.50;21.27;;;;;;;;;;4945236;29;20636;-63
2021/04/19 06:40:46;;;;;;;28.03;23.07;;;;;;;;;;4947950;29;20271;-62
2021/04/19 06:43:12;;;;;;;30.73;23.73;;;;;;;;;;4935009;28;20759;-63
2021/04/19 06:45:39;;;;;;;27.90;21.50;;;;;;;;;;4942853;28;20208;-65
2021/04/19 06:48:06;;;;;;;27.50;22.03;;;;;;;;;;4944220;28;20216;-62
2021/04/19 06:50:33;;;;;;;25.77;20.57;;;;;;;;;;4942441;28;20220;-63
2021/04/19 06:52:59;;;;;;;25.97;20.40;;;;;;;;;;4944899;29;20982;-64
2021/04/19 06:55:26;;;;;;;28.67;22.07;;;;;;;;;;4943236;29;20196;-62
2021/04/19 06:57:53;;;;;;;27.47;24.00;;;;;;;;;;4945407;28;20221;-63
2021/04/19 07:00:20;;;;;;;24.90;21.80;;;;;;;;;;4941411;29;20195;-63
2021/04/19 07:02:51;;;;;;;27.60;22.63;;;;;;;;;;4945513;28;20621;-62
2021/04/19 07:05:19;;;;;;;25.33;21.83;;;;;;;;;;4943937;29;20263;-63
2021/04/19 07:07:50;;;;;;;26.23;22.43;;;;;;;;;;4943745;29;20214;-63
2021/04/19 07:10:17;;;;;;;26.77;22.57;;;;;;;;;;4945187;29;20209;-62
2021/04/19 07:12:44;;;;;;;27.17;21.33;;;;;;;;;;4941952;29;20189;-63
2021/04/19 07:15:12;;;;;;;32.43;24.53;;;;;;;;;;4946062;28;20188;-63
2021/04/19 07:17:39;;;;;;;28.93;24.17;;;;;;;;;;4942123;29;20227;-62
2021/04/19 07:20:05;;;;;;;37.03;28.30;;;;;;;;;;4940977;28;20193;-64
2021/04/19 07:22:31;;;;;;;31.10;26.87;;;;;;;;;;4942871;28;20220;-63
2021/04/19 07:24:57;;;;;;;37.13;28.77;;;;;;;;;;4943233;29;20193;-63
2021/04/19 07:27:23;;;;;;;35.90;30.03;;;;;;;;;;4944389;28;20573;-63
2021/04/19 07:29:49;;;;;;;40.03;29.97;;;;;;;;;;4941981;28;20200;-63
2021/04/19 07:32:15;;;;;;;41.90;29.43;;;;;;;;;;4942773;28;20716;-64
2021/04/19 07:34:41;;;;;;;40.33;29.93;;;;;;;;;;4939684;28;20198;-64
2021/04/19 07:37:11;;;;;;;39.53;28.80;;;;;;;;;;4946757;29;20282;-62
2021/04/19 07:39:41;;;;;;;37.83;29.63;;;;;;;;;;4945387;28;20189;-63
2021/04/19 07:42:08;;;;;;;37.10;26.83;;;;;;;;;;4947087;29;20196;-63
2021/04/19 07:44:56;;;;;;;37.17;28.83;;;;;;;;;;4939808;28;20588;-64
2021/04/19 07:47:25;;;;;;;37.53;27.87;;;;;;;;;;4938233;29;20211;-63
2021/04/19 07:50:09;;;;;;;34.00;27.83;;;;;;;;;;4940519;29;20201;-64
2021/04/19 07:52:53;;;;;;;35.17;28.30;;;;;;;;;;4939305;28;20219;-62
2021/04/19 07:55:39;;;;;;;37.67;26.97;;;;;;;;;;4945851;28;20187;-61
2021/04/19 07:58:06;;;;;;;33.57;26.70;;;;;;;;;;4943102;29;20210;-63
2021/04/19 08:00:37;;;;;;;31.73;26.43;;;;;;;;;;4944644;29;20197;-63
2021/04/19 08:03:07;;;;;;;34.67;26.93;;;;;;;;;;4945170;29;20203;-63
2021/04/19 08:05:36;;;;;;;36.77;27.17;;;;;;;;;;4945100;28;20280;-63
2021/04/19 08:08:03;;;;;;;30.77;24.63;;;;;;;;;;4938564;29;20530;-62
2021/04/19 08:10:29;;;;;;;31.43;24.97;;;;;;;;;;4941678;29;20194;-63
2021/04/19 08:13:03;;;;;;;33.40;24.33;;;;;;;;;;4945364;28;20229;-64
2021/04/19 08:15:29;;;;;;;38.67;29.07;;;;;;;;;;4951001;28;20602;-65
2021/04/19 08:18:06;;;;;;;34.20;26.90;;;;;;;;;;4942974;28;20213;-64
2021/04/19 08:20:32;;;;;;;34.43;26.07;;;;;;;;;;4942470;29;20190;-63
2021/04/19 08:23:09;;;;;;;28.40;23.67;;;;;;;;;;4946237;28;20248;-63
2021/04/19 08:25:36;;;;;;;31.50;26.37;;;;;;;;;;4941486;29;20237;-65
2021/04/19 08:28:07;;;;;;;36.47;28.80;;;;;;;;;;4943915;28;20330;-65
2021/04/19 08:30:34;;;;;;;32.70;26.33;;;;;;;;;;4944532;29;20596;-63
2021/04/19 08:33:00;;;;;;;30.53;24.27;;;;;;;;;;4945410;28;20702;-63
2021/04/19 08:35:27;;;;;;;30.40;24.53;;;;;;;;;;4938094;28;20203;-62
2021/04/19 08:37:55;;;;;;;33.93;26.03;;;;;;;;;;4944740;29;20217;-63
2021/04/19 08:40:22;;;;;;;29.53;23.87;;;;;;;;;;4946460;29;20196;-63
2021/04/19 08:42:48;;;;;;;31.63;24.93;;;;;;;;;;4944761;28;20199;-63
2021/04/19 08:45:14;;;;;;;32.03;23.80;;;;;;;;;;4947843;29;20225;-65
2021/04/19 08:47:40;;;;;;;31.47;25.90;;;;;;;;;;4948090;29;20217;-63
2021/04/19 08:50:08;;;;;;;30.13;25.93;;;;;;;;;;4944473;29;20184;-63
2021/04/19 08:52:35;;;;;;;36.00;26.93;;;;;;;;;;4947477;29;20216;-63
2021/04/19 08:55:01;;;;;;;32.53;25.50;;;;;;;;;;4946843;28;20238;-64
2021/04/19 08:57:27;;;;;;;32.50;23.67;;;;;;;;;;4945282;28;20262;-64
2021/04/19 08:59:54;;;;;;;28.70;23.30;;;;;;;;;;4948956;28;20196;-63
2021/04/19 09:02:20;;;;;;;27.60;23.33;;;;;;;;;;4950724;29;20194;-63
2021/04/19 09:05:05;;;;;;;28.73;23.80;;;;;;;;;;4951818;28;20183;-64
2021/04/19 09:07:35;;;;;;;28.90;21.90;;;;;;;;;;4946405;28;20280;-65
2021/04/19 09:10:01;;;;;;;26.63;22.70;;;;;;;;;;4946359;29;20231;-62
2021/04/19 09:12:28;;;;;;;29.87;25.03;;;;;;;;;;4947356;28;20305;-63
2021/04/19 09:15:09;;;;;;;29.97;24.33;;;;;;;;;;4945199;28;20189;-64
2021/04/19 09:17:38;;;;;;;27.73;24.63;;;;;;;;;;4943650;29;20721;-64
2021/04/19 09:20:04;;;;;;;26.40;22.53;;;;;;;;;;4944087;29;20183;-63
2021/04/19 09:22:30;;;;;;;25.50;22.77;;;;;;;;;;4946289;29;20229;-62
2021/04/19 09:25:00;;;;;;;30.67;23.50;;;;;;;;;;4945321;28;20815;-63
2021/04/19 09:27:38;;;;;;;34.67;24.90;;;;;;;;;;4950074;28;20234;-63
2021/04/19 09:30:28;;;;;;;29.87;25.47;;;;;;;;;;4947741;29;20191;-63
2021/04/19 09:33:06;;;;;;;28.40;22.83;;;;;;;;;;4943620;29;20204;-61
2021/04/19 09:35:41;;;;;;;34.73;27.67;;;;;;;;;;4947300;28;20190;-63
2021/04/19 09:38:08;;;;;;;33.87;26.60;;;;;;;;;;4949071;29;20764;-64
2021/04/19 09:40:51;;;;;;;35.80;25.60;;;;;;;;;;4946622;28;20194;-65
2021/04/19 09:43:30;;;;;;;33.20;28.50;;;;;;;;;;4947303;29;20192;-63
2021/04/19 09:45:57;;;;;;;33.77;26.33;;;;;;;;;;4940703;29;20198;-63
2021/04/19 09:48:28;;;;;;;32.73;24.73;;;;;;;;;;4947453;29;20591;-63
2021/04/19 09:50:54;;;;;;;34.90;26.63;;;;;;;;;;4945487;28;20584;-64
2021/04/19 09:53:20;;;;;;;32.60;27.10;;;;;;;;;;4945766;29;20214;-64
2021/04/19 09:55:46;;;;;;;30.23;24.80;;;;;;;;;;4943329;28;20206;-64
2021/04/19 09:58:13;;;;;;;27.93;23.70;;;;;;;;;;4947628;28;20233;-65
2021/04/19 10:00:39;;;;;;;27.63;23.10;;;;;;;;;;4944565;28;20195;-63
2021/04/19 10:03:06;;;;;;;28.10;24.70;;;;;;;;;;4949442;28;20222;-63
2021/04/19 10:05:32;;;;;;;31.63;25.30;;;;;;;;;;4948352;28;20200;-63
2021/04/19 10:07:59;;;;;;;28.83;23.63;;;;;;;;;;4945966;28;20210;-64
2021/04/19 10:10:25;;;;;;;30.60;24.43;;;;;;;;;;4943421;28;20199;-64
2021/04/19 10:12:51;;;;;;;30.40;24.90;;;;;;;;;;4946448;29;20249;-64
2021/04/19 10:15:24;;;;;;;27.70;23.17;;;;;;;;;;4950096;28;20186;-63
2021/04/19 10:17:51;;;;;;;30.23;25.07;;;;;;;;;;4946917;28;20254;-63
2021/04/19 10:20:25;;;;;;;38.10;28.80;;;;;;;;;;4940901;28;20197;-63
2021/04/19 10:23:07;;;;;;;37.80;28.87;;;;;;;;;;4944994;29;20700;-62
2021/04/19 10:25:35;;;;;;;35.33;29.83;;;;;;;;;;4947738;28;20297;-63
2021/04/19 10:28:01;;;;;;;35.43;29.07;;;;;;;;;;4942096;29;20219;-62
2021/04/19 10:30:27;;;;;;;35.43;27.40;;;;;;;;;;4947183;28;20274;-63
2021/04/19 10:32:53;;;;;;;35.43;27.20;;;;;;;;;;4950193;28;20599;-62
2021/04/19 10:35:31;;;;;;;32.93;27.10;;;;;;;;;;4940739;29;20187;-63
2021/04/19 10:37:57;;;;;;;39.13;28.80;;;;;;;;;;4943742;29;20208;-63
2021/04/19 10:40:23;;;;;;;38.20;28.30;;;;;;;;;;4945785;28;20830;-63
2021/04/19 10:42:49;;;;;;;31.13;25.60;;;;;;;;;;4943997;29;20823;-63
2021/04/19 10:45:16;;;;;;;32.83;26.77;;;;;;;;;;4945809;28;20210;-63
2021/04/19 10:47:42;;;;;;;33.07;25.57;;;;;;;;;;4940145;29;20227;-62
2021/04/19 10:50:09;;;;;;;28.40;21.03;;;;;;;;;;4945301;28;20218;-63
2021/04/19 10:52:35;;;;;;;28.83;24.67;;;;;;;;;;4943959;29;20206;-63
2021/04/19 10:55:09;;;;;;;28.23;22.93;;;;;;;;;;4945116;29;20579;-65
2021/04/19 10:57:35;;;;;;;31.57;26.27;;;;;;;;;;4940517;28;20220;-65
2021/04/19 11:00:04;;;;;;;31.83;24.70;;;;;;;;;;4944944;28;20218;-63
2021/04/19 11:02:31;;;;;;;33.37;24.87;;;;;;;;;;4936852;29;20705;-63
2021/04/19 11:04:58;;;;;;;26.40;21.77;;;;;;;;;;4941812;29;20187;-65
2021/04/19 11:07:24;;;;;;;27.00;21.90;;;;;;;;;;4943831;28;20237;-64
2021/04/19 11:10:10;;;;;;;24.83;20.67;;;;;;;;;;4945888;29;20643;-65
2021/04/19 11:12:36;;;;;;;21.07;17.87;;;;;;;;;;4941563;29;20741;-65
2021/04/19 11:15:12;;;;;;;23.53;19.90;;;;;;;;;;4945939;28;20269;-65
2021/04/19 11:17:38;;;;;;;23.33;19.90;;;;;;;;;;4945411;28;20846;-63
2021/04/19 11:20:23;;;;;;;23.43;19.73;;;;;;;;;;4945444;29;20286;-64
2021/04/19 11:22:49;;;;;;;18.47;16.47;;;;;;;;;;4943768;29;20255;-62
2021/04/19 11:25:17;;;;;;;23.27;18.53;;;;;;;;;;4940856;29;20206;-63
2021/04/19 11:27:50;;;;;;;23.07;18.97;;;;;;;;;;5041629;28;20957;-62
2021/04/19 11:30:17;;;;;;;21.23;18.37;;;;;;;;;;5044634;28;20184;-63
2021/04/19 11:32:43;;;;;;;19.57;17.67;;;;;;;;;;5041793;28;20181;-62
2021/04/19 11:35:23;;;;;;;20.87;18.00;;;;;;;;;;5045407;28;20222;-62
2021/04/19 11:37:57;;;;;;;18.77;16.63;;;;;;;;;;5047528;28;20214;-63
2021/04/19 11:40:29;;;;;;;19.73;17.63;;;;;;;;;;5044164;28;20190;-62
2021/04/19 11:42:55;;;;;;;16.97;15.23;;;;;;;;;;5044967;28;20190;-63
2021/04/19 11:45:26;;;;;;;19.37;17.33;;;;;;;;;;5046849;28;20188;-62
2021/04/19 11:47:52;;;;;;;23.63;19.43;;;;;;;;;;5042893;28;20231;-62
2021/04/19 11:50:19;;;;;;;23.10;20.43;;;;;;;;;;5045199;28;20274;-62
2021/04/19 11:52:46;;;;;;;23.63;19.83;;;;;;;;;;5039086;28;20192;-63
2021/04/19 11:55:13;;;;;;;23.10;20.57;;;;;;;;;;5040926;28;20188;-62
2021/04/19 11:57:40;;;;;;;22.53;20.23;;;;;;;;;;5047517;28;20219;-65
2021/04/19 12:00:07;;;;;;;23.90;21.37;;;;;;;;;;5042377;28;20203;-63
2021/04/19 12:02:35;;;;;;;25.37;20.70;;;;;;;;;;5048148;28;20180;-64
2021/04/19 12:05:01;;;;;;;22.60;19.80;;;;;;;;;;5044745;28;20649;-65
2021/04/19 12:07:27;;;;;;;22.77;20.30;;;;;;;;;;5048091;28;20770;-63
2021/04/19 12:09:53;;;;;;;22.03;19.03;;;;;;;;;;5039687;28;20230;-63
2021/04/19 12:12:19;;;;;;;25.07;22.30;;;;;;;;;;5043471;28;20184;-64
2021/04/19 12:14:45;;;;;;;26.07;21.67;;;;;;;;;;5037937;28;20290;-62
2021/04/19 12:17:11;;;;;;;25.27;21.80;;;;;;;;;;5039549;28;20604;-62
2021/04/19 12:19:38;;;;;;;26.07;22.83;;;;;;;;;;5044857;28;20234;-62
2021/04/19 12:22:04;;;;;;;28.53;23.80;;;;;;;;;;5041252;28;20261;-63
2021/04/19 12:24:30;;;;;;;29.00;24.13;;;;;;;;;;5047075;28;20194;-65
2021/04/19 12:26:56;;;;;;;25.70;22.50;;;;;;;;;;5047177;28;20207;-65
2021/04/19 12:29:22;;;;;;;25.47;22.17;;;;;;;;;;5035260;28;20188;-63
2021/04/19 12:31:48;;;;;;;31.87;25.80;;;;;;;;;;5043323;28;20328;-63
2021/04/19 12:34:14;;;;;;;28.87;24.60;;;;;;;;;;5042989;28;20191;-62
2021/04/19 12:36:39;;;;;;;27.83;23.97;;;;;;;;;;5042902;28;20599;-62
2021/04/19 12:39:06;;;;;;;26.60;23.63;;;;;;;;;;5030316;28;20271;-66
2021/04/19 12:41:32;;;;;;;23.63;21.13;;;;;;;;;;5029902;28;20189;-63
2021/04/19 12:43:58;;;;;;;24.63;22.03;;;;;;;;;;5031811;28;20228;-63
2021/04/19 12:46:27;;;;;;;24.43;20.20;;;;;;;;;;5028937;28;20196;-63
2021/04/19 12:48:57;;;;;;;21.77;19.00;;;;;;;;;;5028500;28;20189;-63
2021/04/19 12:51:27;;;;;;;23.53;20.03;;;;;;;;;;5027228;28;20315;-63
2021/04/19 12:53:53;;;;;;;25.03;21.17;;;;;;;;;;5029030;28;20191;-63
2021/04/19 12:56:19;;;;;;;25.10;21.57;;;;;;;;;;5027764;28;20195;-62
2021/04/19 12:58:45;;;;;;;27.23;22.03;;;;;;;;;;5026426;28;20188;-65
2021/04/19 13:01:12;;;;;;;25.30;22.37;;;;;;;;;;5030444;28;20184;-63
2021/04/19 13:03:38;;;;;;;27.53;22.77;;;;;;;;;;5024975;28;20196;-63
2021/04/19 13:06:05;;;;;;;25.90;22.47;;;;;;;;;;5024158;28;20214;-63
2021/04/19 13:08:31;;;;;;;23.97;21.47;;;;;;;;;;5029233;28;20250;-62
2021/04/19 13:10:57;;;;;;;27.93;22.10;;;;;;;;;;5027432;28;20196;-63
2021/04/19 13:13:23;;;;;;;22.30;19.87;;;;;;;;;;5026343;28;20737;-63
2021/04/19 13:15:49;;;;;;;22.33;19.73;;;;;;;;;;5030234;28;20280;-62
2021/04/19 13:18:15;;;;;;;23.80;21.03;;;;;;;;;;5029479;28;20240;-62
2021/04/19 13:20:41;;;;;;;22.67;20.27;;;;;;;;;;5021043;28;20246;-63
2021/04/19 13:23:08;;;;;;;22.00;19.40;;;;;;;;;;5025569;28;20191;-61
2021/04/19 13:25:34;;;;;;;20.27;18.17;;;;;;;;;;5029806;28;20544;-63
2021/04/19 13:28:00;;;;;;;22.23;18.87;;;;;;;;;;5028162;28;20260;-63
2021/04/19 13:30:27;;;;;;;18.67;16.67;;;;;;;;;;5031909;28;20183;-63
2021/04/19 13:32:53;;;;;;;18.43;16.47;;;;;;;;;;5027329;28;20196;-63
2021/04/19 13:35:20;;;;;;;21.27;17.23;;;;;;;;;;5027752;28;20220;-62
2021/04/19 13:37:46;;;;;;;22.10;18.27;;;;;;;;;;5030880;28;20211;-63
2021/04/19 13:40:14;;;;;;;21.43;18.10;;;;;;;;;;5027863;28;20190;-63
2021/04/19 13:42:40;;;;;;;18.57;16.57;;;;;;;;;;5031434;28;20276;-63
2021/04/19 13:45:07;;;;;;;18.53;16.60;;;;;;;;;;5031859;28;20739;-63
2021/04/19 13:47:33;;;;;;;24.03;19.93;;;;;;;;;;5025617;28;20216;-63
2021/04/19 13:49:59;;;;;;;19.77;17.67;;;;;;;;;;5022082;28;20269;-62
2021/04/19 13:52:26;;;;;;;19.97;17.87;;;;;;;;;;5026576;28;20329;-63
2021/04/19 13:54:52;;;;;;;20.17;17.93;;;;;;;;;;5023945;28;20181;-62
2021/04/19 13:57:18;;;;;;;29.83;21.20;;;;;;;;;;5023205;28;20579;-63
2021/04/19 13:59:45;;;;;;;32.57;22.40;;;;;;;;;;5024169;28;20200;-61
2021/04/19 14:02:11;;;;;;;27.43;22.10;;;;;;;;;;5033506;28;20230;-64
2021/04/19 14:04:37;;;;;;;31.23;25.27;;;;;;;;;;5029065;28;20196;-62
2021/04/19 14:07:03;;;;;;;32.27;25.37;;;;;;;;;;5024433;28;20224;-64
2021/04/19 14:09:29;;;;;;;31.73;24.60;;;;;;;;;;5027197;28;20180;-61
2021/04/19 14:11:56;;;;;;;30.43;25.60;;;;;;;;;;5024958;28;20189;-64
2021/04/19 14:14:22;;;;;;;33.27;27.20;;;;;;;;;;5025380;28;20192;-63
2021/04/19 14:16:48;;;;;;;32.60;26.27;;;;;;;;;;5030353;28;20215;-64
2021/04/19 14:19:14;;;;;;;32.30;26.50;;;;;;;;;;5026499;28;20188;-61
2021/04/19 14:21:40;;;;;;;31.77;25.87;;;;;;;;;;5015257;28;20192;-61